Terminal Aerodrome Forecast
Issued by NWS Pittsburgh, PA

Current Version | Previous Version | Graphics & Text | Print | Product List | Glossary On
Versions: 1 2 3 4 5 6 7 8 9 10 11 12 13 14 15 16 17 18 19 20 21 22 23 24 25 26
412
FTUS41 KPBZ 180301 AAA
TAFPIT
TAF AMD
KPIT 180301Z 1803/1906 00000KT P6SM SCT100
     FM181000 00000KT 3SM BR SCT025
      TEMPO 1811/1813 1/2SM FG VV002
     FM181500 00000KT P6SM SCT025=

USA.gov is the U.S. government's official web portal to all federal, state and local government web resources and services.